Time;durP1;ratioP1;P1;durP2;ratioP2;P2;SDS_P1;SDS_P2;PMS_P1;PMS_P2;Temp;Humidity;BMP_temperature;BMP_pressure;BME280_temperature;BME280_humidity;BME280_pressure;Samples;Min_cycle;Max_cycle;Signal;HPM_P1;HPM_P2
2023/03/23 16:25:56;;;;;;;;;8.20;6.80;;;;;;;;5101775;27;13219;-72
2023/03/23 16:28:21;;;;;;;;;7.00;7.00;;;;;;;;5067741;27;13382;-73
2023/03/23 16:30:47;;;;;;;;;6.00;6.00;;;;;;;;5102590;28;13452;-71
2023/03/23 16:33:13;;;;;;;;;5.80;5.80;;;;;;;;5097513;28;13528;-72
2023/03/23 16:35:38;;;;;;;;;7.00;5.75;;;;;;;;5081149;28;14249;-72
2023/03/23 16:38:06;;;;;;;;;6.00;6.00;;;;;;;;5083166;28;13402;-73
2023/03/23 16:40:32;;;;;;;;;8.00;6.00;;;;;;;;5082613;28;13352;-73
2023/03/23 16:42:58;;;;;;;;;7.00;6.00;;;;;;;;5079678;28;13515;-71
2023/03/23 16:45:25;;;;;;;;;6.00;6.00;;;;;;;;5078579;28;13541;-71
2023/03/23 16:47:51;;;;;;;;;9.25;8.00;;;;;;;;5081928;28;14183;-73
2023/03/23 16:50:16;;;;;;;;;10.00;10.00;;;;;;;;5082776;28;13428;-66
2023/03/23 16:52:43;;;;;;;;;8.60;7.60;;;;;;;;5082064;28;14263;-67
2023/03/23 16:55:09;;;;;;;;;6.00;6.00;;;;;;;;5082120;28;14301;-68
2023/03/23 16:57:36;;;;;;;;;7.25;7.25;;;;;;;;5080475;28;13654;-69
2023/03/23 17:00:04;;;;;;;;;8.50;8.50;;;;;;;;5082437;28;13462;-68
2023/03/23 17:02:30;;;;;;;;;7.80;5.60;;;;;;;;5081471;28;14166;-69
2023/03/23 17:04:55;;;;;;;;;9.25;7.00;;;;;;;;5082117;28;13438;-69
2023/03/23 17:07:20;;;;;;;;;5.00;5.00;;;;;;;;5080503;28;13695;-68
2023/03/23 17:09:46;;;;;;;;;5.50;5.50;;;;;;;;5081945;28;13427;-69
2023/03/23 17:12:12;;;;;;;;;6.00;6.00;;;;;;;;5081895;28;13394;-69
2023/03/23 17:14:37;;;;;;;;;6.00;6.00;;;;;;;;5081814;28;13413;-68
2023/03/23 17:17:02;;;;;;;;;6.25;6.25;;;;;;;;5080351;28;13431;-68
2023/03/23 17:19:28;;;;;;;;;6.00;6.00;;;;;;;;5082037;28;13394;-69
2023/03/23 17:21:53;;;;;;;;;5.75;5.75;;;;;;;;5081572;28;13411;-68
2023/03/23 17:24:19;;;;;;;;;8.00;8.00;;;;;;;;5081683;28;13464;-68
2023/03/23 17:26:44;;;;;;;;;6.75;6.75;;;;;;;;5080800;28;14779;-69
2023/03/23 17:29:10;;;;;;;;;8.00;7.00;;;;;;;;5082082;28;13419;-69
2023/03/23 17:31:35;;;;;;;;;7.00;6.00;;;;;;;;5080103;28;13641;-69
2023/03/23 17:34:01;;;;;;;;;10.00;8.00;;;;;;;;5081654;28;13532;-68
2023/03/23 17:36:26;;;;;;;;;6.00;6.00;;;;;;;;5072990;28;13973;-69
2023/03/23 17:38:51;;;;;;;;;9.00;6.75;;;;;;;;5068305;28;13398;-70
2023/03/23 17:41:19;;;;;;;;;15.33;13.00;;;;;;;;5068420;28;13359;-69
2023/03/23 17:43:45;;;;;;;;;8.75;7.25;;;;;;;;5068184;28;14288;-69
2023/03/23 17:46:10;;;;;;;;;4.50;4.50;;;;;;;;5068332;28;13516;-75
2023/03/23 17:48:35;;;;;;;;;5.50;4.25;;;;;;;;5067126;28;13508;-70
2023/03/23 17:51:01;;;;;;;;;6.50;4.00;;;;;;;;5067753;28;13391;-69
2023/03/23 17:53:27;;;;;;;;;8.25;7.00;;;;;;;;5067712;28;13428;-68
2023/03/23 17:55:53;;;;;;;;;6.80;5.80;;;;;;;;5068336;28;13396;-68
2023/03/23 17:58:18;;;;;;;;;6.00;6.00;;;;;;;;5067912;28;13405;-68
2023/03/23 18:00:43;;;;;;;;;7.75;6.75;;;;;;;;5066453;28;13400;-68
2023/03/23 18:03:09;;;;;;;;;5.00;5.00;;;;;;;;5067265;28;13382;-68
2023/03/23 18:05:37;;;;;;;;;5.75;5.75;;;;;;;;5060706;28;13512;-69
2023/03/23 18:08:02;;;;;;;;;6.00;6.00;;;;;;;;5065411;28;13391;-69
2023/03/23 18:10:27;;;;;;;;;7.00;6.00;;;;;;;;5064995;28;15264;-72
2023/03/23 18:12:53;;;;;;;;;8.00;8.00;;;;;;;;5065845;28;13330;-70
2023/03/23 18:15:18;;;;;;;;;9.00;9.00;;;;;;;;5066249;28;13567;-71
2023/03/23 18:17:46;;;;;;;;;7.00;6.50;;;;;;;;5066031;28;13469;-70
2023/03/23 18:20:12;;;;;;;;;8.50;8.00;;;;;;;;5066304;28;13541;-69
2023/03/23 18:22:37;;;;;;;;;9.75;8.00;;;;;;;;5065658;28;13634;-70
2023/03/23 18:25:03;;;;;;;;;7.00;7.00;;;;;;;;5064443;28;13427;-69
2023/03/23 18:27:29;;;;;;;;;8.80;8.00;;;;;;;;5065336;28;13510;-68
2023/03/23 18:29:54;;;;;;;;;12.00;9.67;;;;;;;;5065599;28;13485;-70
2023/03/23 18:32:20;;;;;;;;;8.50;8.50;;;;;;;;5065457;28;13543;-70
2023/03/23 18:34:45;;;;;;;;;10.00;9.00;;;;;;;;5065208;28;13456;-70
2023/03/23 18:37:11;;;;;;;;;11.33;8.33;;;;;;;;5062725;28;13534;-70
2023/03/23 18:39:40;;;;;;;;;10.75;9.25;;;;;;;;5065371;28;13528;-70
2023/03/23 18:42:05;;;;;;;;;7.50;7.50;;;;;;;;5064522;28;13570;-70
2023/03/23 18:44:30;;;;;;;;;6.80;6.60;;;;;;;;5064494;28;13752;-70
2023/03/23 18:46:56;;;;;;;;;9.00;9.00;;;;;;;;5064930;28;13380;-70
2023/03/23 18:49:21;;;;;;;;;9.00;7.00;;;;;;;;5064959;28;13399;-70
2023/03/23 18:51:47;;;;;;;;;9.00;8.00;;;;;;;;5089036;28;13522;-70
2023/03/23 18:54:12;;;;;;;;;9.50;9.00;;;;;;;;5064842;28;13590;-70
2023/03/23 18:56:37;;;;;;;;;10.00;10.00;;;;;;;;5064827;28;13574;-74
2023/03/23 18:59:03;;;;;;;;;13.75;11.50;;;;;;;;5065528;28;13641;-70
2023/03/23 19:01:28;;;;;;;;;10.33;10.33;;;;;;;;5065334;28;14191;-70
2023/03/23 19:03:53;;;;;;;;;12.33;10.67;;;;;;;;5064016;28;13419;-69
2023/03/23 19:06:23;;;;;;;;;9.75;9.75;;;;;;;;5063468;28;13550;-69
2023/03/23 19:08:50;;;;;;;;;15.60;13.40;;;;;;;;5063320;28;13590;-69
2023/03/23 19:11:16;;;;;;;;;14.00;10.60;;;;;;;;5064623;28;13483;-69
2023/03/23 19:13:41;;;;;;;;;16.25;14.25;;;;;;;;5065129;28;13454;-69
2023/03/23 19:19:43;;;;;;;;;18.00;15.00;;;;;;;;5101051;27;13220;-69
2023/03/23 19:22:08;;;;;;;;;16.20;13.60;;;;;;;;5080881;28;14372;-69
2023/03/23 19:24:34;;;;;;;;;15.00;14.00;;;;;;;;5083156;28;13635;-71
2023/03/23 19:27:00;;;;;;;;;14.33;13.33;;;;;;;;5080760;28;13512;-70
2023/03/23 19:29:25;;;;;;;;;17.50;16.50;;;;;;;;5080496;28;13518;-72
2023/03/23 19:31:51;;;;;;;;;16.25;14.00;;;;;;;;5080786;28;14162;-72
2023/03/23 19:34:17;;;;;;;;;14.25;13.25;;;;;;;;5080110;28;13546;-71
2023/03/23 19:36:43;;;;;;;;;17.25;15.00;;;;;;;;5079161;28;13649;-72
2023/03/23 19:39:09;;;;;;;;;15.20;13.40;;;;;;;;5080354;28;13587;-71
2023/03/23 19:41:35;;;;;;;;;18.00;16.50;;;;;;;;5078650;28;13607;-80
2023/03/23 19:44:02;;;;;;;;;18.75;14.25;;;;;;;;5080647;28;13524;-75
2023/03/23 19:46:27;;;;;;;;;15.00;14.00;;;;;;;;5080761;28;13620;-78
2023/03/23 19:48:53;;;;;;;;;22.67;21.00;;;;;;;;5080308;28;13810;-76
2023/03/23 19:51:19;;;;;;;;;14.25;14.25;;;;;;;;5081995;28;13531;-76
2023/03/23 19:53:45;;;;;;;;;15.00;14.00;;;;;;;;5079158;28;13528;-77
2023/03/23 19:56:14;;;;;;;;;15.00;15.00;;;;;;;;5098402;28;13533;-75
2023/03/23 19:58:39;;;;;;;;;16.20;15.80;;;;;;;;5102051;28;14261;-76
2023/03/23 20:01:05;;;;;;;;;18.25;15.00;;;;;;;;5102166;28;13508;-76
2023/03/23 20:03:30;;;;;;;;;15.50;14.75;;;;;;;;5094907;28;14294;-76
2023/03/23 20:05:59;;;;;;;;;17.67;15.67;;;;;;;;5018365;27;14380;-75
2023/03/23 20:08:25;;;;;;;;;18.75;17.25;;;;;;;;5040226;28;13564;-77
2023/03/23 20:10:50;;;;;;;;;19.00;18.00;;;;;;;;5039033;28;14390;-77
2023/03/23 20:13:15;;;;;;;;;18.00;16.25;;;;;;;;5045146;28;13531;-75
2023/03/23 20:15:40;;;;;;;;;15.00;15.00;;;;;;;;5050659;28;13688;-77
2023/03/23 20:18:06;;;;;;;;;20.67;17.00;;;;;;;;5049618;28;13670;-81
2023/03/23 20:20:32;;;;;;;;;15.50;14.75;;;;;;;;5042555;28;13642;-75
2023/03/23 20:22:58;;;;;;;;;18.60;16.20;;;;;;;;5042061;28;13610;-75
2023/03/23 20:25:23;;;;;;;;;18.00;15.00;;;;;;;;5060897;28;14435;-76
2023/03/23 20:27:48;;;;;;;;;18.25;15.50;;;;;;;;5060804;28;14284;-75
2023/03/23 20:30:14;;;;;;;;;18.25;14.25;;;;;;;;5050877;28;13730;-74
2023/03/23 20:32:39;;;;;;;;;17.50;16.00;;;;;;;;5047472;28;13534;-77
2023/03/23 20:35:08;;;;;;;;;20.75;20.75;;;;;;;;5044446;28;13698;-77
2023/03/23 20:37:36;;;;;;;;;15.00;13.75;;;;;;;;5027874;28;13602;-77
2023/03/23 20:40:05;;;;;;;;;21.00;18.00;;;;;;;;5024827;28;13694;-77
2023/03/23 20:42:32;;;;;;;;;15.67;15.00;;;;;;;;5026576;28;14331;-78
2023/03/23 20:44:57;;;;;;;;;19.75;15.75;;;;;;;;5026091;28;13545;-75
2023/03/23 20:47:22;;;;;;;;;14.50;14.50;;;;;;;;5027471;28;13605;-76
2023/03/23 20:49:48;;;;;;;;;18.00;14.25;;;;;;;;5027458;28;13554;-74
2023/03/23 20:52:13;;;;;;;;;15.00;14.33;;;;;;;;5027015;28;13636;-76
2023/03/23 20:54:40;;;;;;;;;16.00;13.00;;;;;;;;5027779;28;13516;-75
2023/03/23 20:57:05;;;;;;;;;11.20;11.20;;;;;;;;5027616;28;13687;-77
2023/03/23 20:59:30;;;;;;;;;14.00;12.75;;;;;;;;5027732;28;14286;-75
2023/03/23 21:01:56;;;;;;;;;17.67;17.00;;;;;;;;5028030;28;13542;-72
2023/03/23 21:04:25;;;;;;;;;11.33;11.33;;;;;;;;5026369;28;13548;-74
2023/03/23 21:06:51;;;;;;;;;13.75;13.75;;;;;;;;5025944;28;13532;-74
2023/03/23 21:09:17;;;;;;;;;11.00;11.00;;;;;;;;5025812;28;13575;-72
2023/03/23 21:11:42;;;;;;;;;10.25;10.00;;;;;;;;5023915;28;13759;-73
2023/03/23 21:14:08;;;;;;;;;10.40;10.40;;;;;;;;5025489;28;13734;-74
2023/03/23 21:16:34;;;;;;;;;11.40;11.20;;;;;;;;5025382;28;13525;-74
2023/03/23 21:18:59;;;;;;;;;13.00;13.00;;;;;;;;5023656;28;13674;-74
2023/03/23 21:21:26;;;;;;;;;12.80;11.60;;;;;;;;5032442;28;13700;-74
2023/03/23 21:23:51;;;;;;;;;13.20;10.20;;;;;;;;5025088;28;13517;-74
2023/03/23 21:26:18;;;;;;;;;12.00;11.20;;;;;;;;5022985;28;14390;-74
2023/03/23 21:28:44;;;;;;;;;12.20;10.00;;;;;;;;5025508;28;13610;-74
2023/03/23 21:31:09;;;;;;;;;11.75;11.75;;;;;;;;5024800;28;13537;-75
2023/03/23 21:33:34;;;;;;;;;12.00;12.00;;;;;;;;4992237;28;13789;-75
2023/03/23 21:36:01;;;;;;;;;11.25;11.25;;;;;;;;4986812;28;14758;-74
2023/03/23 21:38:26;;;;;;;;;11.80;11.80;;;;;;;;4927101;28;13746;-75
2023/03/23 21:40:53;;;;;;;;;14.75;14.75;;;;;;;;5040747;28;13563;-74
2023/03/23 21:43:18;;;;;;;;;14.25;12.25;;;;;;;;5024978;28;13680;-74
2023/03/23 21:45:44;;;;;;;;;10.00;10.00;;;;;;;;5006012;28;13743;-73
2023/03/23 21:48:10;;;;;;;;;12.00;12.00;;;;;;;;5023391;28;13567;-74
2023/03/23 21:50:37;;;;;;;;;16.40;14.00;;;;;;;;5024671;28;14346;-74
2023/03/23 21:53:02;;;;;;;;;15.00;14.00;;;;;;;;5024919;28;13565;-74
2023/03/23 21:55:32;;;;;;;;;13.50;13.00;;;;;;;;5024934;28;14417;-75
2023/03/23 21:57:58;;;;;;;;;11.50;11.50;;;;;;;;5025231;28;13812;-69
2023/03/23 22:00:23;;;;;;;;;13.00;9.00;;;;;;;;5024884;28;14307;-68
2023/03/23 22:02:50;;;;;;;;;12.75;12.00;;;;;;;;5030540;28;13535;-68
2023/03/23 22:05:15;;;;;;;;;13.25;12.00;;;;;;;;5025565;28;13558;-67
2023/03/23 22:07:42;;;;;;;;;10.50;10.50;;;;;;;;5025587;28;13555;-68
2023/03/23 22:10:08;;;;;;;;;13.00;13.00;;;;;;;;5025452;28;13617;-68
2023/03/23 22:12:35;;;;;;;;;10.80;10.80;;;;;;;;5025735;28;13682;-68
2023/03/23 22:15:00;;;;;;;;;10.40;10.40;;;;;;;;5024742;28;14295;-68
2023/03/23 22:17:25;;;;;;;;;12.75;9.75;;;;;;;;4974962;28;13675;-67
2023/03/23 22:19:51;;;;;;;;;14.00;13.00;;;;;;;;5044555;28;13511;-68
2023/03/23 22:22:18;;;;;;;;;13.00;11.50;;;;;;;;5041296;28;13529;-68
2023/03/23 22:24:43;;;;;;;;;18.00;13.80;;;;;;;;5024244;28;13537;-67
2023/03/23 22:27:08;;;;;;;;;18.00;18.00;;;;;;;;5024331;28;13516;-67
2023/03/23 22:29:34;;;;;;;;;13.50;13.50;;;;;;;;5022882;28;14657;-67
2023/03/23 22:31:59;;;;;;;;;16.75;14.75;;;;;;;;5024841;28;13535;-68
2023/03/23 22:34:25;;;;;;;;;20.25;19.00;;;;;;;;5024155;28;13575;-68
2023/03/23 22:36:50;;;;;;;;;14.75;14.00;;;;;;;;5024002;28;13651;-67
2023/03/23 22:39:15;;;;;;;;;19.50;15.75;;;;;;;;5018896;28;13590;-68
2023/03/23 22:41:41;;;;;;;;;15.50;15.50;;;;;;;;5014295;28;13555;-68
2023/03/23 22:44:10;;;;;;;;;16.00;15.75;;;;;;;;5004596;28;13558;-67
2023/03/23 22:46:36;;;;;;;;;20.00;16.00;;;;;;;;5005443;28;13588;-71
2023/03/23 22:49:01;;;;;;;;;17.00;17.00;;;;;;;;5004966;28;13512;-69
2023/03/23 22:51:27;;;;;;;;;18.50;16.00;;;;;;;;5005810;28;13533;-66
2023/03/23 22:53:52;;;;;;;;;17.33;16.00;;;;;;;;5020474;28;13691;-68
2023/03/23 22:56:18;;;;;;;;;21.00;17.00;;;;;;;;5024188;28;13503;-68
2023/03/23 22:58:43;;;;;;;;;18.25;16.25;;;;;;;;5025643;28;13733;-67
2023/03/23 23:01:17;;;;;;;;;20.00;19.00;;;;;;;;5025658;28;13541;-67
2023/03/23 23:03:42;;;;;;;;;15.00;15.00;;;;;;;;5024098;28;13512;-68
2023/03/23 23:06:09;;;;;;;;;18.00;17.00;;;;;;;;5025277;28;13678;-68
2023/03/23 23:08:34;;;;;;;;;23.00;15.80;;;;;;;;5024971;28;13508;-68
2023/03/23 23:11:00;;;;;;;;;23.75;21.00;;;;;;;;5025484;28;13595;-68
2023/03/23 23:13:26;;;;;;;;;16.50;13.50;;;;;;;;5040473;28;14363;-68
2023/03/23 23:15:53;;;;;;;;;20.20;15.60;;;;;;;;5025152;28;13475;-67
2023/03/23 23:18:19;;;;;;;;;17.40;16.60;;;;;;;;5040254;28;14306;-68
2023/03/23 23:20:47;;;;;;;;;16.40;16.40;;;;;;;;5025295;28;13589;-67
2023/03/23 23:23:13;;;;;;;;;20.40;15.00;;;;;;;;5024565;28;13539;-67
2023/03/23 23:25:38;;;;;;;;;19.67;17.00;;;;;;;;5025181;28;14304;-67
2023/03/23 23:28:04;;;;;;;;;17.33;16.00;;;;;;;;5024964;28;13613;-67
2023/03/23 23:30:30;;;;;;;;;17.50;15.00;;;;;;;;5040056;28;13603;-68
2023/03/23 23:32:55;;;;;;;;;18.25;14.00;;;;;;;;5024887;28;13517;-68
2023/03/23 23:35:21;;;;;;;;;15.67;15.67;;;;;;;;5025389;28;13739;-67
2023/03/23 23:37:47;;;;;;;;;17.00;15.00;;;;;;;;5039896;28;13585;-67
2023/03/23 23:40:16;;;;;;;;;17.75;15.25;;;;;;;;5024668;28;14309;-68
2023/03/23 23:42:45;;;;;;;;;14.75;14.75;;;;;;;;5024944;28;13631;-68
2023/03/23 23:45:11;;;;;;;;;18.25;15.50;;;;;;;;5024923;28;13482;-68
2023/03/23 23:47:37;;;;;;;;;17.75;16.00;;;;;;;;5024781;28;13533;-68
2023/03/23 23:50:03;;;;;;;;;17.75;14.00;;;;;;;;5024870;28;14099;-67
2023/03/23 23:52:28;;;;;;;;;17.50;17.50;;;;;;;;5024826;28;13518;-67
2023/03/23 23:54:54;;;;;;;;;16.25;16.25;;;;;;;;5024632;28;13497;-67
2023/03/23 23:57:19;;;;;;;;;16.00;15.00;;;;;;;;5024637;28;13518;-67
2023/03/23 23:59:45;;;;;;;;;21.00;18.75;;;;;;;;5024557;28;13621;-67
